sensor_id;sensor_type;location;lat;lon;timestamp;P1;durP1;ratioP1;P2;durP2;ratioP2
78324;SDS011;67584;51.400;6.692;2023-12-07T00:02:09;20.73;;;12.55;;
78324;SDS011;67584;51.400;6.692;2023-12-07T00:04:35;19.63;;;13.48;;
78324;SDS011;67584;51.400;6.692;2023-12-07T00:07:00;20.55;;;12.65;;
78324;SDS011;67584;51.400;6.692;2023-12-07T00:09:26;17.60;;;11.73;;
78324;SDS011;67584;51.400;6.692;2023-12-07T00:11:52;19.45;;;13.00;;
78324;SDS011;67584;51.400;6.692;2023-12-07T00:14:17;20.35;;;13.85;;
78324;SDS011;67584;51.400;6.692;2023-12-07T00:16:43;22.30;;;12.68;;
78324;SDS011;67584;51.400;6.692;2023-12-07T00:19:08;21.33;;;14.10;;
78324;SDS011;67584;51.400;6.692;2023-12-07T00:21:34;18.80;;;13.90;;
78324;SDS011;67584;51.400;6.692;2023-12-07T00:24:00;20.80;;;14.20;;
78324;SDS011;67584;51.400;6.692;2023-12-07T00:26:26;18.63;;;12.57;;
78324;SDS011;67584;51.400;6.692;2023-12-07T00:28:51;21.20;;;13.88;;
78324;SDS011;67584;51.400;6.692;2023-12-07T00:31:17;20.92;;;13.27;;
78324;SDS011;67584;51.400;6.692;2023-12-07T00:33:43;20.10;;;13.90;;
78324;SDS011;67584;51.400;6.692;2023-12-07T00:36:10;23.60;;;14.60;;
78324;SDS011;67584;51.400;6.692;2023-12-07T00:38:35;21.05;;;12.50;;
78324;SDS011;67584;51.400;6.692;2023-12-07T00:41:01;19.55;;;12.23;;
78324;SDS011;67584;51.400;6.692;2023-12-07T00:43:27;23.30;;;12.85;;
78324;SDS011;67584;51.400;6.692;2023-12-07T00:45:52;21.23;;;13.23;;
78324;SDS011;67584;51.400;6.692;2023-12-07T00:48:18;19.90;;;13.35;;
78324;SDS011;67584;51.400;6.692;2023-12-07T00:50:44;19.17;;;13.45;;
78324;SDS011;67584;51.400;6.692;2023-12-07T00:53:09;22.08;;;11.98;;
78324;SDS011;67584;51.400;6.692;2023-12-07T00:55:35;24.27;;;13.32;;
78324;SDS011;67584;51.400;6.692;2023-12-07T00:58:01;19.88;;;12.93;;
78324;SDS011;67584;51.400;6.692;2023-12-07T01:00:27;22.65;;;13.68;;
78324;SDS011;67584;51.400;6.692;2023-12-07T01:02:53;21.98;;;12.60;;
78324;SDS011;67584;51.400;6.692;2023-12-07T01:05:18;21.08;;;12.93;;
78324;SDS011;67584;51.400;6.692;2023-12-07T01:07:44;23.15;;;13.30;;
78324;SDS011;67584;51.400;6.692;2023-12-07T01:10:10;19.73;;;13.23;;
78324;SDS011;67584;51.400;6.692;2023-12-07T01:12:35;22.10;;;12.82;;
78324;SDS011;67584;51.400;6.692;2023-12-07T01:15:01;19.60;;;13.23;;
78324;SDS011;67584;51.400;6.692;2023-12-07T01:17:27;19.40;;;13.23;;
78324;SDS011;67584;51.400;6.692;2023-12-07T01:19:53;24.00;;;13.32;;
78324;SDS011;67584;51.400;6.692;2023-12-07T01:22:19;20.00;;;12.43;;
78324;SDS011;67584;51.400;6.692;2023-12-07T01:24:45;16.98;;;12.20;;
78324;SDS011;67584;51.400;6.692;2023-12-07T01:27:11;19.88;;;12.75;;
78324;SDS011;67584;51.400;6.692;2023-12-07T01:29:37;21.63;;;12.75;;
78324;SDS011;67584;51.400;6.692;2023-12-07T01:32:02;33.13;;;13.63;;
78324;SDS011;67584;51.400;6.692;2023-12-07T01:34:28;40.58;;;14.07;;
78324;SDS011;67584;51.400;6.692;2023-12-07T01:36:54;43.65;;;14.20;;
78324;SDS011;67584;51.400;6.692;2023-12-07T01:39:20;43.88;;;13.75;;
78324;SDS011;67584;51.400;6.692;2023-12-07T01:41:47;64.45;;;16.65;;
78324;SDS011;67584;51.400;6.692;2023-12-07T01:44:12;89.43;;;19.25;;
78324;SDS011;67584;51.400;6.692;2023-12-07T01:46:38;42.25;;;14.57;;
78324;SDS011;67584;51.400;6.692;2023-12-07T01:49:04;112.47;;;21.73;;
78324;SDS011;67584;51.400;6.692;2023-12-07T01:51:29;74.65;;;15.95;;
78324;SDS011;67584;51.400;6.692;2023-12-07T01:53:56;40.15;;;12.75;;
78324;SDS011;67584;51.400;6.692;2023-12-07T01:56:23;57.08;;;16.42;;
78324;SDS011;67584;51.400;6.692;2023-12-07T01:58:50;53.92;;;15.65;;
78324;SDS011;67584;51.400;6.692;2023-12-07T02:01:16;30.25;;;12.30;;
78324;SDS011;67584;51.400;6.692;2023-12-07T02:03:42;42.30;;;14.68;;
78324;SDS011;67584;51.400;6.692;2023-12-07T02:06:08;33.58;;;13.77;;
78324;SDS011;67584;51.400;6.692;2023-12-07T02:08:35;67.97;;;15.48;;
78324;SDS011;67584;51.400;6.692;2023-12-07T02:11:06;39.08;;;12.80;;
78324;SDS011;67584;51.400;6.692;2023-12-07T02:13:34;30.33;;;12.77;;
78324;SDS011;67584;51.400;6.692;2023-12-07T02:16:08;31.63;;;12.85;;
78324;SDS011;67584;51.400;6.692;2023-12-07T02:19:08;28.67;;;11.52;;
78324;SDS011;67584;51.400;6.692;2023-12-07T02:24:04;24.95;;;12.57;;
78324;SDS011;67584;51.400;6.692;2023-12-07T02:26:34;21.77;;;12.00;;
78324;SDS011;67584;51.400;6.692;2023-12-07T02:29:00;21.13;;;11.30;;
78324;SDS011;67584;51.400;6.692;2023-12-07T02:31:26;20.40;;;11.13;;
78324;SDS011;67584;51.400;6.692;2023-12-07T02:33:53;21.23;;;12.27;;
78324;SDS011;67584;51.400;6.692;2023-12-07T02:36:19;21.15;;;12.60;;
78324;SDS011;67584;51.400;6.692;2023-12-07T02:38:47;19.65;;;12.27;;
78324;SDS011;67584;51.400;6.692;2023-12-07T02:41:16;20.73;;;12.30;;
78324;SDS011;67584;51.400;6.692;2023-12-07T02:43:43;25.13;;;14.32;;
78324;SDS011;67584;51.400;6.692;2023-12-07T02:46:09;27.13;;;14.15;;
78324;SDS011;67584;51.400;6.692;2023-12-07T02:48:35;25.00;;;13.57;;
78324;SDS011;67584;51.400;6.692;2023-12-07T02:51:00;29.55;;;13.65;;
78324;SDS011;67584;51.400;6.692;2023-12-07T02:53:26;23.38;;;12.40;;
78324;SDS011;67584;51.400;6.692;2023-12-07T02:55:52;24.33;;;13.43;;
78324;SDS011;67584;51.400;6.692;2023-12-07T02:58:17;21.60;;;13.02;;
78324;SDS011;67584;51.400;6.692;2023-12-07T03:00:43;21.92;;;14.38;;
78324;SDS011;67584;51.400;6.692;2023-12-07T03:03:09;25.95;;;14.20;;
78324;SDS011;67584;51.400;6.692;2023-12-07T03:05:34;28.83;;;15.80;;
78324;SDS011;67584;51.400;6.692;2023-12-07T03:08:00;23.63;;;14.45;;
78324;SDS011;67584;51.400;6.692;2023-12-07T03:10:26;25.20;;;15.70;;
78324;SDS011;67584;51.400;6.692;2023-12-07T03:12:51;27.88;;;16.05;;
78324;SDS011;67584;51.400;6.692;2023-12-07T03:15:17;27.23;;;14.95;;
78324;SDS011;67584;51.400;6.692;2023-12-07T03:17:43;26.67;;;13.52;;
78324;SDS011;67584;51.400;6.692;2023-12-07T03:20:09;26.83;;;15.00;;
78324;SDS011;67584;51.400;6.692;2023-12-07T03:22:35;29.05;;;15.38;;
78324;SDS011;67584;51.400;6.692;2023-12-07T03:25:01;25.05;;;14.55;;
78324;SDS011;67584;51.400;6.692;2023-12-07T03:27:26;26.27;;;14.55;;
78324;SDS011;67584;51.400;6.692;2023-12-07T03:29:53;26.75;;;15.18;;
78324;SDS011;67584;51.400;6.692;2023-12-07T03:32:19;26.50;;;14.77;;
78324;SDS011;67584;51.400;6.692;2023-12-07T03:34:44;26.15;;;15.02;;
78324;SDS011;67584;51.400;6.692;2023-12-07T03:37:10;27.15;;;14.55;;
78324;SDS011;67584;51.400;6.692;2023-12-07T03:39:36;27.30;;;16.00;;
78324;SDS011;67584;51.400;6.692;2023-12-07T03:42:01;32.38;;;16.40;;
78324;SDS011;67584;51.400;6.692;2023-12-07T03:44:27;25.85;;;14.65;;
78324;SDS011;67584;51.400;6.692;2023-12-07T03:46:53;24.90;;;14.48;;
78324;SDS011;67584;51.400;6.692;2023-12-07T03:49:19;25.50;;;14.38;;
78324;SDS011;67584;51.400;6.692;2023-12-07T03:51:45;26.48;;;15.40;;
78324;SDS011;67584;51.400;6.692;2023-12-07T03:54:11;26.20;;;14.35;;
78324;SDS011;67584;51.400;6.692;2023-12-07T03:56:36;21.85;;;12.18;;
78324;SDS011;67584;51.400;6.692;2023-12-07T03:59:02;24.83;;;14.60;;
78324;SDS011;67584;51.400;6.692;2023-12-07T04:01:28;27.77;;;14.50;;
78324;SDS011;67584;51.400;6.692;2023-12-07T04:03:55;23.95;;;13.70;;
78324;SDS011;67584;51.400;6.692;2023-12-07T04:06:22;23.67;;;13.73;;
78324;SDS011;67584;51.400;6.692;2023-12-07T04:08:48;24.95;;;14.23;;
78324;SDS011;67584;51.400;6.692;2023-12-07T04:11:14;23.98;;;14.82;;
78324;SDS011;67584;51.400;6.692;2023-12-07T04:13:40;25.88;;;13.75;;
78324;SDS011;67584;51.400;6.692;2023-12-07T04:16:06;29.17;;;14.18;;
78324;SDS011;67584;51.400;6.692;2023-12-07T04:18:33;26.23;;;13.07;;
78324;SDS011;67584;51.400;6.692;2023-12-07T04:20:58;25.17;;;13.57;;
78324;SDS011;67584;51.400;6.692;2023-12-07T04:23:24;28.52;;;13.10;;
78324;SDS011;67584;51.400;6.692;2023-12-07T04:25:50;25.05;;;14.05;;
78324;SDS011;67584;51.400;6.692;2023-12-07T04:28:16;29.80;;;15.73;;
78324;SDS011;67584;51.400;6.692;2023-12-07T04:30:42;26.45;;;14.95;;
78324;SDS011;67584;51.400;6.692;2023-12-07T04:33:07;26.08;;;13.98;;
78324;SDS011;67584;51.400;6.692;2023-12-07T04:35:33;24.63;;;11.82;;
78324;SDS011;67584;51.400;6.692;2023-12-07T04:37:59;23.05;;;13.07;;
78324;SDS011;67584;51.400;6.692;2023-12-07T04:40:25;28.88;;;14.18;;
78324;SDS011;67584;51.400;6.692;2023-12-07T04:42:51;30.33;;;16.25;;
78324;SDS011;67584;51.400;6.692;2023-12-07T04:45:16;26.58;;;14.60;;
78324;SDS011;67584;51.400;6.692;2023-12-07T04:47:42;25.52;;;14.25;;
78324;SDS011;67584;51.400;6.692;2023-12-07T04:50:08;24.40;;;12.48;;
78324;SDS011;67584;51.400;6.692;2023-12-07T04:52:35;26.40;;;13.20;;
78324;SDS011;67584;51.400;6.692;2023-12-07T04:55:01;27.67;;;15.30;;
78324;SDS011;67584;51.400;6.692;2023-12-07T04:57:27;26.60;;;14.48;;
78324;SDS011;67584;51.400;6.692;2023-12-07T04:59:52;24.35;;;12.60;;
78324;SDS011;67584;51.400;6.692;2023-12-07T05:02:18;22.75;;;13.27;;
78324;SDS011;67584;51.400;6.692;2023-12-07T05:04:44;24.00;;;13.32;;
78324;SDS011;67584;51.400;6.692;2023-12-07T05:09:39;22.00;;;11.55;;
78324;SDS011;67584;51.400;6.692;2023-12-07T05:12:05;22.20;;;12.27;;
78324;SDS011;67584;51.400;6.692;2023-12-07T05:14:32;24.88;;;13.38;;
78324;SDS011;67584;51.400;6.692;2023-12-07T05:16:58;25.88;;;13.27;;
78324;SDS011;67584;51.400;6.692;2023-12-07T05:19:23;23.08;;;13.48;;
78324;SDS011;67584;51.400;6.692;2023-12-07T05:21:53;26.15;;;14.57;;
78324;SDS011;67584;51.400;6.692;2023-12-07T05:24:18;29.77;;;14.23;;
78324;SDS011;67584;51.400;6.692;2023-12-07T05:26:45;25.20;;;14.38;;
78324;SDS011;67584;51.400;6.692;2023-12-07T05:29:11;27.02;;;16.05;;
78324;SDS011;67584;51.400;6.692;2023-12-07T05:31:37;25.50;;;13.18;;
78324;SDS011;67584;51.400;6.692;2023-12-07T05:34:03;22.08;;;11.85;;
78324;SDS011;67584;51.400;6.692;2023-12-07T05:36:29;27.33;;;14.15;;
78324;SDS011;67584;51.400;6.692;2023-12-07T05:38:55;26.73;;;15.20;;
78324;SDS011;67584;51.400;6.692;2023-12-07T05:41:20;34.65;;;15.82;;
78324;SDS011;67584;51.400;6.692;2023-12-07T05:43:46;31.63;;;15.32;;
78324;SDS011;67584;51.400;6.692;2023-12-07T05:46:12;23.90;;;13.95;;
78324;SDS011;67584;51.400;6.692;2023-12-07T05:48:37;28.25;;;14.75;;
78324;SDS011;67584;51.400;6.692;2023-12-07T05:51:03;27.50;;;14.73;;
78324;SDS011;67584;51.400;6.692;2023-12-07T05:53:30;26.38;;;15.25;;
78324;SDS011;67584;51.400;6.692;2023-12-07T05:55:58;30.08;;;15.75;;
78324;SDS011;67584;51.400;6.692;2023-12-07T05:58:24;29.85;;;15.35;;
78324;SDS011;67584;51.400;6.692;2023-12-07T06:00:49;25.17;;;13.15;;
78324;SDS011;67584;51.400;6.692;2023-12-07T06:03:15;29.10;;;14.82;;
78324;SDS011;67584;51.400;6.692;2023-12-07T06:05:41;33.75;;;15.85;;
78324;SDS011;67584;51.400;6.692;2023-12-07T06:08:07;26.55;;;14.05;;
78324;SDS011;67584;51.400;6.692;2023-12-07T06:10:33;42.17;;;15.48;;
78324;SDS011;67584;51.400;6.692;2023-12-07T06:12:59;36.03;;;15.43;;
78324;SDS011;67584;51.400;6.692;2023-12-07T06:15:26;49.45;;;15.70;;
78324;SDS011;67584;51.400;6.692;2023-12-07T06:17:52;81.47;;;20.20;;
78324;SDS011;67584;51.400;6.692;2023-12-07T06:20:19;63.35;;;17.33;;
78324;SDS011;67584;51.400;6.692;2023-12-07T06:22:45;53.28;;;17.50;;
78324;SDS011;67584;51.400;6.692;2023-12-07T06:25:11;79.38;;;20.05;;
78324;SDS011;67584;51.400;6.692;2023-12-07T06:27:36;118.22;;;25.98;;
78324;SDS011;67584;51.400;6.692;2023-12-07T06:30:03;67.50;;;19.23;;
78324;SDS011;67584;51.400;6.692;2023-12-07T06:32:33;95.90;;;21.35;;
78324;SDS011;67584;51.400;6.692;2023-12-07T06:34:59;148.20;;;25.20;;
78324;SDS011;67584;51.400;6.692;2023-12-07T06:37:25;129.65;;;22.67;;
78324;SDS011;67584;51.400;6.692;2023-12-07T06:39:51;109.13;;;23.58;;
78324;SDS011;67584;51.400;6.692;2023-12-07T06:42:17;118.07;;;19.42;;
78324;SDS011;67584;51.400;6.692;2023-12-07T06:44:43;84.47;;;18.08;;
78324;SDS011;67584;51.400;6.692;2023-12-07T06:47:11;123.90;;;24.23;;
78324;SDS011;67584;51.400;6.692;2023-12-07T06:49:37;127.18;;;21.05;;
78324;SDS011;67584;51.400;6.692;2023-12-07T06:52:02;151.68;;;24.38;;
78324;SDS011;67584;51.400;6.692;2023-12-07T06:54:28;148.35;;;25.73;;
78324;SDS011;67584;51.400;6.692;2023-12-07T06:56:54;96.88;;;23.10;;
78324;SDS011;67584;51.400;6.692;2023-12-07T06:59:20;157.68;;;24.83;;
78324;SDS011;67584;51.400;6.692;2023-12-07T07:01:45;118.88;;;23.20;;
78324;SDS011;67584;51.400;6.692;2023-12-07T07:04:11;143.93;;;23.92;;
78324;SDS011;67584;51.400;6.692;2023-12-07T07:06:38;130.25;;;20.67;;
78324;SDS011;67584;51.400;6.692;2023-12-07T07:09:04;215.82;;;32.47;;
78324;SDS011;67584;51.400;6.692;2023-12-07T07:11:30;114.18;;;19.58;;
78324;SDS011;67584;51.400;6.692;2023-12-07T07:13:56;100.32;;;20.65;;
78324;SDS011;67584;51.400;6.692;2023-12-07T07:16:21;112.53;;;21.20;;
78324;SDS011;67584;51.400;6.692;2023-12-07T07:18:47;156.00;;;23.65;;
78324;SDS011;67584;51.400;6.692;2023-12-07T07:21:13;111.72;;;19.55;;
78324;SDS011;67584;51.400;6.692;2023-12-07T07:23:38;156.63;;;27.05;;
78324;SDS011;67584;51.400;6.692;2023-12-07T07:26:04;79.25;;;18.83;;
78324;SDS011;67584;51.400;6.692;2023-12-07T07:28:30;144.25;;;25.17;;
78324;SDS011;67584;51.400;6.692;2023-12-07T07:30:56;95.25;;;20.10;;
78324;SDS011;67584;51.400;6.692;2023-12-07T07:33:21;100.82;;;21.30;;
78324;SDS011;67584;51.400;6.692;2023-12-07T07:35:47;104.38;;;19.48;;
78324;SDS011;67584;51.400;6.692;2023-12-07T07:38:13;73.53;;;17.02;;
78324;SDS011;67584;51.400;6.692;2023-12-07T07:40:39;100.97;;;21.23;;
78324;SDS011;67584;51.400;6.692;2023-12-07T07:43:05;139.13;;;24.27;;
78324;SDS011;67584;51.400;6.692;2023-12-07T07:45:31;109.22;;;21.02;;
78324;SDS011;67584;51.400;6.692;2023-12-07T07:47:56;110.97;;;23.70;;
78324;SDS011;67584;51.400;6.692;2023-12-07T07:50:22;110.75;;;21.98;;
78324;SDS011;67584;51.400;6.692;2023-12-07T07:52:48;123.05;;;22.55;;
78324;SDS011;67584;51.400;6.692;2023-12-07T07:55:13;198.45;;;28.23;;
78324;SDS011;67584;51.400;6.692;2023-12-07T07:57:39;113.28;;;22.00;;
78324;SDS011;67584;51.400;6.692;2023-12-07T08:00:05;96.25;;;22.30;;
78324;SDS011;67584;51.400;6.692;2023-12-07T08:02:33;112.32;;;19.30;;
78324;SDS011;67584;51.400;6.692;2023-12-07T08:04:59;113.40;;;20.60;;
78324;SDS011;67584;51.400;6.692;2023-12-07T08:07:25;152.00;;;26.60;;
78324;SDS011;67584;51.400;6.692;2023-12-07T08:09:51;136.57;;;22.27;;
78324;SDS011;67584;51.400;6.692;2023-12-07T08:12:16;168.48;;;22.88;;
78324;SDS011;67584;51.400;6.692;2023-12-07T08:14:42;138.48;;;22.05;;
78324;SDS011;67584;51.400;6.692;2023-12-07T08:17:11;206.82;;;29.02;;
78324;SDS011;67584;51.400;6.692;2023-12-07T08:19:36;111.15;;;21.13;;
78324;SDS011;67584;51.400;6.692;2023-12-07T08:22:03;106.68;;;19.35;;
78324;SDS011;67584;51.400;6.692;2023-12-07T08:24:29;133.82;;;20.75;;
78324;SDS011;67584;51.400;6.692;2023-12-07T08:26:54;90.63;;;19.83;;
78324;SDS011;67584;51.400;6.692;2023-12-07T08:29:20;90.32;;;17.02;;
78324;SDS011;67584;51.400;6.692;2023-12-07T08:31:46;75.35;;;17.30;;
78324;SDS011;67584;51.400;6.692;2023-12-07T08:34:12;134.25;;;21.13;;
78324;SDS011;67584;51.400;6.692;2023-12-07T08:36:38;102.65;;;19.40;;
78324;SDS011;67584;51.400;6.692;2023-12-07T08:39:03;157.32;;;23.42;;
78324;SDS011;67584;51.400;6.692;2023-12-07T08:41:29;158.73;;;26.55;;
78324;SDS011;67584;51.400;6.692;2023-12-07T08:43:55;190.77;;;27.02;;
78324;SDS011;67584;51.400;6.692;2023-12-07T08:46:20;155.88;;;23.42;;
78324;SDS011;67584;51.400;6.692;2023-12-07T08:48:46;139.10;;;24.83;;
78324;SDS011;67584;51.400;6.692;2023-12-07T08:51:12;119.78;;;21.95;;
78324;SDS011;67584;51.400;6.692;2023-12-07T08:53:38;82.03;;;16.40;;
78324;SDS011;67584;51.400;6.692;2023-12-07T08:56:04;68.60;;;16.92;;
78324;SDS011;67584;51.400;6.692;2023-12-07T08:58:30;64.93;;;15.60;;
78324;SDS011;67584;51.400;6.692;2023-12-07T09:00:56;47.60;;;14.75;;
78324;SDS011;67584;51.400;6.692;2023-12-07T09:03:21;88.80;;;17.33;;
78324;SDS011;67584;51.400;6.692;2023-12-07T09:05:52;51.58;;;15.48;;
78324;SDS011;67584;51.400;6.692;2023-12-07T09:08:18;44.70;;;12.65;;
78324;SDS011;67584;51.400;6.692;2023-12-07T09:10:44;40.08;;;15.73;;
78324;SDS011;67584;51.400;6.692;2023-12-07T09:13:10;37.42;;;14.95;;
78324;SDS011;67584;51.400;6.692;2023-12-07T09:15:35;22.63;;;12.35;;
78324;SDS011;67584;51.400;6.692;2023-12-07T09:18:02;20.50;;;11.25;;
78324;SDS011;67584;51.400;6.692;2023-12-07T09:20:28;22.52;;;12.38;;
78324;SDS011;67584;51.400;6.692;2023-12-07T09:22:54;21.13;;;13.60;;
78324;SDS011;67584;51.400;6.692;2023-12-07T09:25:22;23.17;;;13.10;;
78324;SDS011;67584;51.400;6.692;2023-12-07T09:27:47;25.75;;;13.75;;
78324;SDS011;67584;51.400;6.692;2023-12-07T09:30:13;23.33;;;13.80;;
78324;SDS011;67584;51.400;6.692;2023-12-07T09:32:39;26.23;;;13.70;;
78324;SDS011;67584;51.400;6.692;2023-12-07T09:35:06;29.63;;;14.57;;
78324;SDS011;67584;51.400;6.692;2023-12-07T09:37:33;24.15;;;13.23;;
78324;SDS011;67584;51.400;6.692;2023-12-07T09:39:59;20.35;;;12.75;;
78324;SDS011;67584;51.400;6.692;2023-12-07T09:42:26;15.55;;;9.70;;
78324;SDS011;67584;51.400;6.692;2023-12-07T09:44:52;14.40;;;9.30;;
78324;SDS011;67584;51.400;6.692;2023-12-07T09:47:18;15.27;;;9.27;;
78324;SDS011;67584;51.400;6.692;2023-12-07T09:49:45;16.40;;;9.35;;
78324;SDS011;67584;51.400;6.692;2023-12-07T09:52:11;13.18;;;9.77;;
78324;SDS011;67584;51.400;6.692;2023-12-07T09:54:40;14.88;;;9.32;;
78324;SDS011;67584;51.400;6.692;2023-12-07T09:57:07;17.67;;;8.95;;
78324;SDS011;67584;51.400;6.692;2023-12-07T09:59:39;12.95;;;8.98;;
78324;SDS011;67584;51.400;6.692;2023-12-07T10:02:06;15.30;;;10.05;;
78324;SDS011;67584;51.400;6.692;2023-12-07T10:04:32;13.00;;;8.30;;
78324;SDS011;67584;51.400;6.692;2023-12-07T10:06:58;14.68;;;9.02;;
78324;SDS011;67584;51.400;6.692;2023-12-07T10:09:24;12.57;;;8.25;;
78324;SDS011;67584;51.400;6.692;2023-12-07T10:12:01;10.75;;;8.48;;
78324;SDS011;67584;51.400;6.692;2023-12-07T10:14:28;16.42;;;8.45;;
78324;SDS011;67584;51.400;6.692;2023-12-07T10:16:55;11.77;;;9.27;;
78324;SDS011;67584;51.400;6.692;2023-12-07T10:19:21;12.98;;;7.38;;
78324;SDS011;67584;51.400;6.692;2023-12-07T10:21:51;9.20;;;7.38;;
78324;SDS011;67584;51.400;6.692;2023-12-07T10:24:17;12.57;;;8.65;;
78324;SDS011;67584;51.400;6.692;2023-12-07T10:26:45;12.48;;;10.50;;
78324;SDS011;67584;51.400;6.692;2023-12-07T10:29:13;12.35;;;9.60;;
78324;SDS011;67584;51.400;6.692;2023-12-07T10:31:39;13.95;;;8.88;;
78324;SDS011;67584;51.400;6.692;2023-12-07T10:34:05;15.93;;;8.75;;
78324;SDS011;67584;51.400;6.692;2023-12-07T10:36:31;12.60;;;9.43;;
78324;SDS011;67584;51.400;6.692;2023-12-07T10:39:00;14.05;;;9.10;;
78324;SDS011;67584;51.400;6.692;2023-12-07T10:41:26;11.73;;;8.00;;
78324;SDS011;67584;51.400;6.692;2023-12-07T10:43:53;12.80;;;7.85;;
78324;SDS011;67584;51.400;6.692;2023-12-07T10:46:25;12.40;;;7.72;;
78324;SDS011;67584;51.400;6.692;2023-12-07T10:48:59;10.30;;;7.45;;
78324;SDS011;67584;51.400;6.692;2023-12-07T10:51:34;13.25;;;8.82;;
78324;SDS011;67584;51.400;6.692;2023-12-07T10:54:06;15.27;;;9.68;;
78324;SDS011;67584;51.400;6.692;2023-12-07T10:56:42;11.25;;;7.95;;
78324;SDS011;67584;51.400;6.692;2023-12-07T10:59:10;12.57;;;9.00;;
78324;SDS011;67584;51.400;6.692;2023-12-07T11:01:39;10.77;;;8.27;;
78324;SDS011;67584;51.400;6.692;2023-12-07T11:04:06;16.92;;;8.50;;
78324;SDS011;67584;51.400;6.692;2023-12-07T11:06:34;11.35;;;7.90;;
78324;SDS011;67584;51.400;6.692;2023-12-07T11:09:01;9.52;;;6.60;;
78324;SDS011;67584;51.400;6.692;2023-12-07T11:14:08;9.88;;;7.50;;
78324;SDS011;67584;51.400;6.692;2023-12-07T11:16:41;11.30;;;8.00;;
78324;SDS011;67584;51.400;6.692;2023-12-07T11:19:27;12.50;;;7.80;;
78324;SDS011;67584;51.400;6.692;2023-12-07T11:22:05;11.35;;;7.68;;
78324;SDS011;67584;51.400;6.692;2023-12-07T11:24:32;11.27;;;7.60;;
78324;SDS011;67584;51.400;6.692;2023-12-07T11:26:58;8.35;;;6.15;;
78324;SDS011;67584;51.400;6.692;2023-12-07T11:29:24;12.20;;;8.30;;
78324;SDS011;67584;51.400;6.692;2023-12-07T11:32:00;13.90;;;8.00;;
78324;SDS011;67584;51.400;6.692;2023-12-07T11:34:36;9.60;;;7.40;;
78324;SDS011;67584;51.400;6.692;2023-12-07T11:37:06;11.02;;;7.82;;
78324;SDS011;67584;51.400;6.692;2023-12-07T11:39:50;10.60;;;7.50;;
78324;SDS011;67584;51.400;6.692;2023-12-07T11:44:48;9.90;;;7.07;;
78324;SDS011;67584;51.400;6.692;2023-12-07T11:47:15;10.68;;;6.97;;
78324;SDS011;67584;51.400;6.692;2023-12-07T11:49:43;10.95;;;7.38;;
78324;SDS011;67584;51.400;6.692;2023-12-07T11:52:13;11.00;;;6.72;;
78324;SDS011;67584;51.400;6.692;2023-12-07T11:54:44;10.27;;;7.35;;
78324;SDS011;67584;51.400;6.692;2023-12-07T11:57:14;12.05;;;7.40;;
78324;SDS011;67584;51.400;6.692;2023-12-07T11:59:41;13.02;;;7.95;;
78324;SDS011;67584;51.400;6.692;2023-12-07T12:02:11;13.45;;;6.95;;
78324;SDS011;67584;51.400;6.692;2023-12-07T12:04:37;8.23;;;6.60;;
78324;SDS011;67584;51.400;6.692;2023-12-07T12:07:03;10.95;;;7.40;;
78324;SDS011;67584;51.400;6.692;2023-12-07T12:09:29;10.38;;;6.78;;
78324;SDS011;67584;51.400;6.692;2023-12-07T12:11:56;11.80;;;9.10;;
78324;SDS011;67584;51.400;6.692;2023-12-07T12:14:25;10.95;;;8.10;;
78324;SDS011;67584;51.400;6.692;2023-12-07T12:16:52;11.77;;;7.28;;
78324;SDS011;67584;51.400;6.692;2023-12-07T12:19:18;10.35;;;7.63;;
78324;SDS011;67584;51.400;6.692;2023-12-07T12:21:43;13.02;;;8.57;;
78324;SDS011;67584;51.400;6.692;2023-12-07T12:24:10;13.65;;;7.80;;
78324;SDS011;67584;51.400;6.692;2023-12-07T12:26:37;12.57;;;7.50;;
78324;SDS011;67584;51.400;6.692;2023-12-07T12:29:06;12.55;;;9.57;;
78324;SDS011;67584;51.400;6.692;2023-12-07T12:31:33;12.77;;;8.57;;
78324;SDS011;67584;51.400;6.692;2023-12-07T12:34:05;9.98;;;6.82;;
78324;SDS011;67584;51.400;6.692;2023-12-07T12:36:33;8.32;;;6.28;;
78324;SDS011;67584;51.400;6.692;2023-12-07T12:38:59;12.70;;;8.88;;
78324;SDS011;67584;51.400;6.692;2023-12-07T12:41:27;13.27;;;8.80;;
78324;SDS011;67584;51.400;6.692;2023-12-07T12:43:55;11.63;;;7.40;;
78324;SDS011;67584;51.400;6.692;2023-12-07T12:46:21;9.93;;;7.30;;
78324;SDS011;67584;51.400;6.692;2023-12-07T12:48:54;10.55;;;7.55;;
78324;SDS011;67584;51.400;6.692;2023-12-07T12:51:22;9.50;;;6.80;;
78324;SDS011;67584;51.400;6.692;2023-12-07T12:53:53;11.30;;;8.20;;
78324;SDS011;67584;51.400;6.692;2023-12-07T12:56:20;10.57;;;7.38;;
78324;SDS011;67584;51.400;6.692;2023-12-07T12:58:47;9.98;;;7.10;;
78324;SDS011;67584;51.400;6.692;2023-12-07T13:01:16;9.88;;;7.60;;
78324;SDS011;67584;51.400;6.692;2023-12-07T13:03:48;9.02;;;6.72;;
78324;SDS011;67584;51.400;6.692;2023-12-07T13:06:14;11.48;;;8.02;;
78324;SDS011;67584;51.400;6.692;2023-12-07T13:08:43;12.13;;;7.30;;
78324;SDS011;67584;51.400;6.692;2023-12-07T13:11:09;9.98;;;7.40;;
78324;SDS011;67584;51.400;6.692;2023-12-07T13:13:35;10.13;;;7.47;;
78324;SDS011;67584;51.400;6.692;2023-12-07T13:16:00;10.60;;;7.07;;
78324;SDS011;67584;51.400;6.692;2023-12-07T13:18:26;8.63;;;6.63;;
78324;SDS011;67584;51.400;6.692;2023-12-07T13:20:52;10.63;;;7.28;;
78324;SDS011;67584;51.400;6.692;2023-12-07T13:23:17;10.65;;;6.65;;
78324;SDS011;67584;51.400;6.692;2023-12-07T13:25:43;8.07;;;6.32;;
78324;SDS011;67584;51.400;6.692;2023-12-07T13:28:08;8.93;;;6.80;;
78324;SDS011;67584;51.400;6.692;2023-12-07T13:30:34;9.10;;;5.88;;
78324;SDS011;67584;51.400;6.692;2023-12-07T13:33:01;8.00;;;5.95;;
78324;SDS011;67584;51.400;6.692;2023-12-07T13:35:28;8.05;;;6.22;;
78324;SDS011;67584;51.400;6.692;2023-12-07T13:37:54;10.27;;;7.65;;
78324;SDS011;67584;51.400;6.692;2023-12-07T13:40:20;9.75;;;6.65;;
78324;SDS011;67584;51.400;6.692;2023-12-07T13:42:46;9.27;;;6.80;;
78324;SDS011;67584;51.400;6.692;2023-12-07T13:45:12;7.97;;;6.78;;
78324;SDS011;67584;51.400;6.692;2023-12-07T13:47:38;9.75;;;7.18;;
78324;SDS011;67584;51.400;6.692;2023-12-07T13:50:04;9.13;;;6.68;;
78324;SDS011;67584;51.400;6.692;2023-12-07T13:52:30;8.38;;;6.03;;
78324;SDS011;67584;51.400;6.692;2023-12-07T13:54:56;9.68;;;6.70;;
78324;SDS011;67584;51.400;6.692;2023-12-07T13:57:23;8.95;;;6.57;;
78324;SDS011;67584;51.400;6.692;2023-12-07T13:59:52;9.18;;;6.35;;
78324;SDS011;67584;51.400;6.692;2023-12-07T14:02:21;8.80;;;6.57;;
78324;SDS011;67584;51.400;6.692;2023-12-07T14:04:47;8.05;;;6.10;;
78324;SDS011;67584;51.400;6.692;2023-12-07T14:07:16;10.23;;;6.53;;
78324;SDS011;67584;51.400;6.692;2023-12-07T14:09:50;10.32;;;6.55;;
78324;SDS011;67584;51.400;6.692;2023-12-07T14:12:16;7.63;;;6.18;;
78324;SDS011;67584;51.400;6.692;2023-12-07T14:14:43;6.93;;;5.80;;
78324;SDS011;67584;51.400;6.692;2023-12-07T14:17:13;9.00;;;6.82;;
78324;SDS011;67584;51.400;6.692;2023-12-07T14:19:40;8.90;;;6.47;;
78324;SDS011;67584;51.400;6.692;2023-12-07T14:22:06;9.65;;;6.57;;
78324;SDS011;67584;51.400;6.692;2023-12-07T14:24:34;8.95;;;5.85;;
78324;SDS011;67584;51.400;6.692;2023-12-07T14:27:02;9.57;;;6.00;;
78324;SDS011;67584;51.400;6.692;2023-12-07T14:29:29;9.70;;;5.90;;
78324;SDS011;67584;51.400;6.692;2023-12-07T14:31:55;11.93;;;6.20;;
78324;SDS011;67584;51.400;6.692;2023-12-07T14:34:21;8.32;;;5.95;;